Terminal Aerodrome Forecast
Issued by NWS

Home | Current Version | Previous Version | Graphics & Text | Print | Product List | Glossary On
Versions: 1 2 3 4 5 6 7 8 9 10 11 12 13 14 15 16 17 18
000
FTUS42 KMHX 152300
TAFOAJ
TAF
KOAJ 152336Z 1600/1624 22015G25KT 4SM -RA SCT008 OVC015
     FM160300 34015G25KT P6SM VCSH BKN020
     FM160700 36015G25KT P6SM SKC
     FM161800 03015G20KT P6SM SKC
      AMD LTD TO CLD VIS AND WIND=

USA.gov is the U.S. government's official web portal to all federal, state and local government web resources and services.